Gilman, Colorado
Current Conditions -  °F | °C
As of 10:55 PM on Saturday 22 Nov 2014 (Local Time) from KCCU Reporting Station
Moderate Snow Moderate Snow  
Wind Chill: 12°   Ceiling: 400
Heat Index: 27°   Visibility: 0.25mi
Dew Point: 19°   Wind: 22mph
Humidity: 74%   Direction: 250°WSW
Pressure: 29.76"   Gusts: 40mph
Location:  39.5881°N, 106.433°W
Report Text: KCCU 230555Z AUTO 25019G35KT 1/4SM SN OVC004 M03/M07 A2976 RMK AO2
Loading
Personal Weather Stations






























Interactive Weather Map New forecast layout! Learn more

10-Day Weather Forecast

Advertisements
Track Severe Weather on mobile